Marienthal, KS (67863)

5:23 PM CDT on September 18, 2014 (GMT -0500)
SIMON | Change Station
CLOSE
Current Station
Personal Weather Station
Location: MARIENTHAL, KS
Elevation: 3255 ft
Nearby Weather Stations

Elev 3255 ft 38.54 °N, 101.25 °W | Updated 1 second ago

Clear
Clear
89.6 °F
Feels Like 87 °F
N
11.0
Wind Variable Wind from SSW
Gusts 22.0 mph

Today
High -- | Low -- °F
--% Chance of Precip.
Yesterday
High -- | Low -- °F
Precip. -- in
7:29 AM 7:48 PM
Waning Crescent, 24% visible
Pressure 29.81 in
Visibility 10.0 miles
Clouds Clear
Heat Index 87 °F
Dew Point 54 °F
Humidity 30%
Rainfall 0.01 in
Snow Depth Not available.
UV 4 out of 12
Pollen 6.60 out of 12
Air Quality Not available.
Flu Activity Not available.
METAR KGCK 182154Z 18016KT 10SM CLR 32/12 A2990 RMK AO2 SLP092 T03170122

More Conditions Fewer Conditions

Pressure 29.81 in
Visibility 10.0 miles
Clouds Clear
Heat Index 87 °F
Dew Point 54 °F
Humidity 30%
Rainfall 0.01 in
Snow Depth Not available.
UV 4 out of 12
Pollen 6.60 out of 12
Air Quality Not available.
Flu Activity Not available.
METAR KGCK 182154Z 18016KT 10SM CLR 32/12 A2990 RMK AO2 SLP092 T03170122

More Conditions Fewer Conditions

10-Day Weather Forecast

Almanac

Astronomy

Sep. 18, 2014 Rise Set
Actual Time 7:29 AM CDT 7:48 PM CDT
Civil Twilight 7:02 AM CDT 8:14 PM CDT
Nautical Twilight 6:31 AM CDT 8:45 PM CDT
Astronomical Twilight 5:59 AM CDT 9:17 PM CDT
Moon 2:25 AM CDT 4:37 PM CDT
Length of Visible Light 13h 12m
Length of Day
12h 19m
Tomorrow will be 2m 28s shorter.
Waning Crescent, 24% of the Moon is Illuminated
Today
Waning Crescent
Sep 24
New
Oct 1
First Quarter
Oct 8
Full
Oct 15
Last Quarter

Today's Extremes

State Highs State Lows

Community

WunderPhotos

Upload Photos

1,754,457 photos uploaded!

WunderBlogs® & News

Nearby

Snow Depth

Station Depth Elevation
No new snow has been reported.

Earthquake Activity

City Distance Mag. Time & Date
No recent earthquake activity has been reported nearby.
Minimum magnitude displayed is 2.5.

Coastal Water Temperatures

Place Temperature
No Stations Reporting

Nearby Weather Stations